CheckWX is a tool to help pilots better visualize weather data.  It is not intended as a substitute for an official pre-flight weather briefing.

18:03:27 UTC

KGDB METAR
Granite Falls Municipal / Lenzen-Roe-Fagen Memorial Field Airport
Granite Falls, Minnesota, USA
Current

7 mins ago

KGDB 171756Z AUTO 03010KT 3SM HZ OVC019 M06/M09 A3003 RMK AO2 T10611091 11061 21088
Observed
Feb-17 @ 17:56 UTC
Wind
  • 030° at 10 KTS
Visibility
3 SM
Flight Rules
MVFR
Conditions
Haze
Cloud Levels
  • Overcast at 1,900' AGL
Temperature
-6°C / 21°F
Dewpoint
-9°C / 16°F
Humidity
80%
Altimeter
30.03" Hg
Pressure
1016.92 hPa
Previous

27 mins ago

KGDB 171736Z AUTO 02011KT 4SM HZ OVC019 M06/M09 A3003 RMK AO2 T10641094
Observed
Feb-17 @ 17:36 UTC
Wind
  • 020° at 11 KTS
Visibility
4 SM
Flight Rules
MVFR
Conditions
Haze
Cloud Levels
  • Overcast at 1,900' AGL
Temperature
-6°C / 21°F
Dewpoint
-9°C / 16°F
Humidity
80%
Altimeter
30.03" Hg
Pressure
1016.92 hPa
Previous

48 mins ago

KGDB 171715Z AUTO 02011KT 4SM HZ OVC023 M07/M09 A3003 RMK AO2 T10661095
Observed
Feb-17 @ 17:15 UTC
Wind
  • 020° at 11 KTS
Visibility
4 SM
Flight Rules
MVFR
Conditions
Haze
Cloud Levels
  • Overcast at 2,300' AGL
Temperature
-7°C / 19°F
Dewpoint
-10°C / 14°F
Humidity
79%
Altimeter
30.03" Hg
Pressure
1016.92 hPa